Time;durP1;ratioP1;P1;durP2;ratioP2;P2;SDS_P1;SDS_P2;PMS_P1;PMS_P2;Temp;Humidity;BMP_temperature;BMP_pressure;BME280_temperature;BME280_humidity;BME280_pressure;Samples;Min_cycle;Max_cycle;Signal;HPM_P1;HPM_P2
2023/01/06 00:01:07;;;;;;;0.50;0.50;;;;;;;9.17;86.74;97497.88;29394;215;64004;-63
2023/01/06 00:01:39;;;;;;;0.50;0.50;;;;;;;9.23;86.72;97496.78;29394;206;64009;-69
2023/01/06 00:02:10;;;;;;;0.50;0.50;;;;;;;9.29;86.01;97493.00;29395;236;63004;-63
2023/01/06 00:02:41;;;;;;;0.70;0.70;;;;;;;9.29;86.07;97490.31;29395;202;63009;-63
2023/01/06 00:03:13;;;;;;;0.50;0.50;;;;;;;9.31;86.24;97495.44;29394;330;64004;-62
2023/01/06 00:03:49;;;;;;;0.50;0.50;;;;;;;9.31;86.36;97493.56;29395;202;63008;-65
2023/01/06 00:04:20;;;;;;;0.50;0.50;;;;;;;9.30;86.13;97491.13;29395;234;63005;-61
2023/01/06 00:04:51;;;;;;;0.50;0.50;;;;;;;9.26;86.50;97496.25;29395;267;63009;-63
2023/01/06 00:05:24;;;;;;;0.50;0.50;;;;;;;9.19;87.02;97489.47;29395;277;63005;-61
2023/01/06 00:06:00;;;;;;;0.50;0.50;;;;;;;9.16;86.88;97485.41;29395;340;63009;-63
2023/01/06 00:06:31;;;;;;;0.50;0.50;;;;;;;9.18;86.75;97485.94;29395;202;63005;-66
2023/01/06 00:07:03;;;;;;;0.50;0.50;;;;;;;9.25;86.80;97491.94;29394;206;64009;-64
2023/01/06 00:07:38;;;;;;;0.50;0.50;;;;;;;9.30;86.44;97491.13;29395;196;63005;-65
2023/01/06 00:08:09;;;;;;;0.50;0.50;;;;;;;9.31;86.41;97493.56;29395;391;63009;-62
2023/01/06 00:08:40;;;;;;;0.50;0.50;;;;;;;9.29;86.02;97494.91;29394;220;64004;-64
2023/01/06 00:09:12;;;;;;;0.50;0.50;;;;;;;9.27;86.33;97492.47;29395;224;63019;-61
2023/01/06 00:09:43;;;;;;;0.50;0.50;;;;;;;9.23;86.50;97495.97;29395;235;63004;-61
2023/01/06 00:10:15;;;;;;;0.50;0.50;;;;;;;9.20;86.67;97491.91;29394;208;64009;-61
2023/01/06 00:10:46;;;;;;;0.50;0.50;;;;;;;9.22;86.52;97488.94;29395;268;63004;-62
2023/01/06 00:11:18;;;;;;;0.50;0.50;;;;;;;9.23;86.68;97491.38;29395;261;63008;-60
2023/01/06 00:11:49;;;;;;;0.50;0.50;;;;;;;9.21;86.39;97485.41;29395;253;63005;-62
2023/01/06 00:12:20;;;;;;;0.50;0.50;;;;;;;9.20;86.54;97494.63;29395;226;63009;-63
2023/01/06 00:12:54;;;;;;;0.50;0.50;;;;;;;9.20;86.79;97493.81;29394;218;64005;-62
2023/01/06 00:13:25;;;;;;;0.50;0.50;;;;;;;9.19;86.70;97487.59;29395;203;63009;-63
2023/01/06 00:13:56;;;;;;;0.50;0.50;;;;;;;9.16;86.70;97490.81;29395;232;63005;-61
2023/01/06 00:14:29;;;;;;;0.50;0.50;;;;;;;9.17;86.80;97492.44;29395;205;63009;-67
2023/01/06 00:15:01;;;;;;;0.50;0.50;;;;;;;9.18;86.72;97488.66;29395;213;63005;-62
2023/01/06 00:15:32;;;;;;;0.50;0.50;;;;;;;9.17;86.87;97492.44;29395;205;63009;-60
2023/01/06 00:16:10;;;;;;;0.50;0.50;;;;;;;9.17;87.03;97497.06;29395;203;63004;-62
2023/01/06 00:16:41;;;;;;;0.50;0.50;;;;;;;9.20;86.79;97497.34;29395;251;63009;-63
2023/01/06 00:17:13;;;;;;;0.50;0.50;;;;;;;9.22;86.60;97489.75;29395;202;63004;-60
2023/01/06 00:17:46;;;;;;;0.50;0.50;;;;;;;9.21;86.72;97493.53;29394;197;64009;-61
2023/01/06 00:18:17;;;;;;;0.55;0.55;;;;;;;9.18;86.72;97495.97;29395;238;63004;-62
2023/01/06 00:18:53;;;;;;;0.50;0.50;;;;;;;9.17;86.79;97488.94;29395;346;63008;-64
2023/01/06 00:19:27;;;;;;;0.50;0.50;;;;;;;9.14;87.11;97490.28;29395;216;63012;-61
2023/01/06 00:19:58;;;;;;;0.50;0.50;;;;;;;9.13;87.21;97491.34;29395;269;63009;-62
2023/01/06 00:20:29;;;;;;;0.50;0.50;;;;;;;9.16;86.96;97488.13;29395;246;63005;-64
2023/01/06 00:21:01;;;;;;;0.50;0.50;;;;;;;9.22;86.78;97487.03;29395;199;63009;-61
2023/01/06 00:21:33;;;;;;;0.50;0.50;;;;;;;9.22;86.69;97481.62;29395;240;63005;-61
2023/01/06 00:22:04;;;;;;;0.50;0.50;;;;;;;9.19;86.50;97490.28;29395;320;63009;-61
2023/01/06 00:22:38;;;;;;;0.50;0.50;;;;;;;9.18;86.88;97487.84;29394;196;64005;-61
2023/01/06 00:23:09;;;;;;;0.50;0.50;;;;;;;9.17;86.95;97484.31;29395;204;63009;-62
2023/01/06 00:23:41;;;;;;;0.50;0.50;;;;;;;9.17;86.75;97480.81;29395;203;63004;-62
2023/01/06 00:24:12;;;;;;;0.50;0.50;;;;;;;9.15;87.15;97483.78;29395;209;63017;-62
2023/01/06 00:24:44;;;;;;;0.50;0.50;;;;;;;9.13;87.22;97480.53;29395;237;63004;-62
2023/01/06 00:25:15;;;;;;;0.50;0.50;;;;;;;9.11;87.34;97482.69;29395;204;63009;-61
2023/01/06 00:25:50;;;;;;;0.70;0.70;;;;;;;9.14;87.40;97482.16;29395;202;63004;-62
2023/01/06 00:26:23;;;;;;;0.50;0.50;;;;;;;9.15;87.18;97477.56;29395;206;63008;-62
2023/01/06 00:26:54;;;;;;;0.50;0.50;;;;;;;9.13;87.02;97480.53;29394;226;64005;-62
2023/01/06 00:27:26;;;;;;;0.50;0.50;;;;;;;9.12;87.48;97478.09;29394;273;64009;-61
2023/01/06 00:27:57;;;;;;;0.50;0.50;;;;;;;9.12;87.33;97483.50;29394;205;64005;-61
2023/01/06 00:28:28;;;;;;;0.50;0.50;;;;;;;9.10;87.60;97481.06;29395;265;63009;-61
2023/01/06 00:29:00;;;;;;;0.50;0.50;;;;;;;9.10;87.53;97474.84;29395;218;63005;-62
2023/01/06 00:29:31;;;;;;;0.50;0.50;;;;;;;9.11;87.63;97482.69;29395;287;63009;-62
2023/01/06 00:30:04;;;;;;;0.50;0.50;;;;;;;9.10;87.48;97470.22;29395;221;63000;-63
2023/01/06 00:30:36;;;;;;;0.50;0.50;;;;;;;9.13;87.51;97480.53;29394;218;64009;-61
2023/01/06 00:31:10;;;;;;;0.50;0.50;;;;;;;9.13;87.05;97474.31;29395;208;63004;-61
2023/01/06 00:31:41;;;;;;;0.50;0.50;;;;;;;9.14;87.40;97482.16;29395;199;63009;-64
2023/01/06 00:32:12;;;;;;;0.50;0.50;;;;;;;9.14;86.99;97476.75;29395;236;63004;-61
2023/01/06 00:32:44;;;;;;;0.50;0.50;;;;;;;9.13;87.26;97480.53;29395;221;63008;-61
2023/01/06 00:33:15;;;;;;;0.50;0.50;;;;;;;9.13;87.51;97471.59;29395;202;63004;-62
2023/01/06 00:33:46;;;;;;;0.50;0.50;;;;;;;9.16;87.00;97474.56;29395;201;63008;-61
2023/01/06 00:34:17;;;;;;;0.50;0.50;;;;;;;9.13;86.92;97469.69;29395;198;63005;-62
2023/01/06 00:34:49;;;;;;;0.50;0.50;;;;;;;9.11;87.27;97471.88;29395;270;63009;-61
2023/01/06 00:35:20;;;;;;;0.50;0.50;;;;;;;9.10;87.43;97469.41;29395;197;63005;-62
2023/01/06 00:35:51;;;;;;;0.50;0.50;;;;;;;9.08;87.53;97469.69;29394;229;64009;-63
2023/01/06 00:36:23;;;;;;;0.50;0.50;;;;;;;9.08;87.51;97470.50;29395;235;63005;-64
2023/01/06 00:36:55;;;;;;;0.50;0.50;;;;;;;9.08;87.59;97472.41;29394;220;64009;-60
2023/01/06 00:37:26;;;;;;;0.50;0.50;;;;;;;9.07;87.61;97468.06;29395;254;63005;-61
2023/01/06 00:37:58;;;;;;;0.50;0.50;;;;;;;9.08;87.73;97466.97;29395;254;63009;-61
2023/01/06 00:38:29;;;;;;;0.50;0.50;;;;;;;9.08;87.56;97461.56;29395;252;63006;-61
2023/01/06 00:39:01;;;;;;;0.50;0.50;;;;;;;9.06;87.67;97463.72;29395;219;63026;-60
2023/01/06 00:39:32;;;;;;;0.50;0.50;;;;;;;9.05;87.59;97468.34;29395;210;63004;-60
2023/01/06 00:40:04;;;;;;;0.50;0.50;;;;;;;9.02;87.88;97463.44;29395;213;63008;-61
2023/01/06 00:40:37;;;;;;;0.50;0.50;;;;;;;9.00;87.86;97460.22;29395;196;63004;-65
2023/01/06 00:42:03;;;;;;;0.50;0.50;;;;;;;8.99;88.10;97463.19;29394;204;64005;-61
2023/01/06 00:42:36;;;;;;;0.50;0.50;;;;;;;9.01;87.95;97461.00;29395;230;63009;-62
2023/01/06 00:43:08;;;;;;;0.50;0.50;;;;;;;9.01;87.80;97461.00;29395;239;63005;-61
2023/01/06 00:43:39;;;;;;;0.50;0.50;;;;;;;9.01;88.13;97461.00;29395;221;63009;-61
2023/01/06 00:44:11;;;;;;;0.50;0.50;;;;;;;9.01;88.10;97461.81;29394;207;64005;-60
2023/01/06 00:44:42;;;;;;;0.50;0.50;;;;;;;9.01;88.30;97461.00;29395;203;63009;-60
2023/01/06 00:45:14;;;;;;;0.50;0.50;;;;;;;8.99;88.15;97455.09;29395;210;63004;-65
2023/01/06 00:45:45;;;;;;;0.50;0.50;;;;;;;8.99;88.09;97460.50;29395;212;63009;-61
2023/01/06 00:46:16;;;;;;;0.50;0.50;;;;;;;8.97;88.06;97459.94;29395;256;63004;-64
2023/01/06 00:46:48;;;;;;;0.80;0.80;;;;;;;8.96;88.49;97458.31;29395;262;63009;-60
2023/01/06 00:47:19;;;;;;;0.50;0.50;;;;;;;8.96;88.37;97452.91;29395;251;63004;-60
2023/01/06 00:47:50;;;;;;;0.50;0.50;;;;;;;8.95;88.25;97457.50;29395;238;63008;-65
2023/01/06 00:48:22;;;;;;;0.50;0.50;;;;;;;8.95;88.21;97454.00;29395;226;63004;-61
2023/01/06 00:48:57;;;;;;;0.50;0.50;;;;;;;8.95;88.33;97462.13;29395;251;63009;-60
2023/01/06 00:49:28;;;;;;;0.50;0.50;;;;;;;8.94;88.19;97455.06;29394;231;64005;-60
2023/01/06 00:49:59;;;;;;;0.50;0.50;;;;;;;8.92;88.69;97462.66;29395;198;63009;-60
2023/01/06 00:50:31;;;;;;;0.50;0.50;;;;;;;8.89;88.56;97457.75;29395;203;63005;-61
2023/01/06 00:51:03;;;;;;;0.50;0.50;;;;;;;8.89;88.60;97460.47;29395;247;63009;-61
2023/01/06 00:51:37;;;;;;;0.50;0.50;;;;;;;8.90;88.54;97459.41;29395;256;63005;-64
2023/01/06 00:52:09;;;;;;;0.50;0.50;;;;;;;8.88;88.58;97451.53;29395;256;63009;-63
2023/01/06 00:52:40;;;;;;;0.50;0.50;;;;;;;8.88;88.60;97456.13;29395;210;63004;-61
2023/01/06 00:53:12;;;;;;;0.50;0.50;;;;;;;8.87;88.72;97459.94;29395;211;63009;-67
2023/01/06 00:53:43;;;;;;;0.50;0.50;;;;;;;8.87;88.63;97458.03;29395;203;63010;-64
2023/01/06 00:54:15;;;;;;;0.43;0.43;;;;;;;8.87;88.67;97449.09;29395;266;63023;-66
2023/01/06 00:54:47;;;;;;;0.50;0.50;;;;;;;8.87;88.75;97454.50;29394;220;64004;-64
2023/01/06 00:55:18;;;;;;;0.50;0.50;;;;;;;8.85;88.80;97460.19;29395;223;63008;-61
2023/01/06 00:55:49;;;;;;;0.50;0.50;;;;;;;8.84;88.63;97460.47;29395;345;63004;-63
2023/01/06 00:56:21;;;;;;;0.50;0.50;;;;;;;8.83;89.05;97454.22;29395;217;63009;-61
2023/01/06 00:56:53;;;;;;;0.50;0.50;;;;;;;8.83;89.05;97458.84;29395;206;63005;-62
2023/01/06 00:57:26;;;;;;;0.50;0.50;;;;;;;8.82;89.21;97457.19;29395;207;63009;-61
2023/01/06 00:57:57;;;;;;;0.50;0.50;;;;;;;8.81;88.98;97452.88;29395;246;63005;-64
2023/01/06 00:58:38;;;;;;;0.50;0.50;;;;;;;8.78;89.18;97451.50;29395;211;63009;-65
2023/01/06 00:59:15;;;;;;;0.50;0.50;;;;;;;8.77;89.23;97455.28;29395;206;63005;-67
2023/01/06 00:59:47;;;;;;;0.50;0.50;;;;;;;8.78;89.44;97456.13;29394;250;64009;-61
2023/01/06 01:00:23;;;;;;;0.50;0.50;;;;;;;8.77;89.39;97454.47;29395;228;63004;-66
2023/01/06 01:00:55;;;;;;;0.50;0.50;;;;;;;8.77;89.41;97457.19;29395;202;63009;-61
2023/01/06 01:01:26;;;;;;;0.50;0.50;;;;;;;8.76;89.32;97461.78;29395;213;63004;-62
2023/01/06 01:01:58;;;;;;;0.50;0.50;;;;;;;8.78;89.70;97461.53;29395;218;63009;-61
2023/01/06 01:02:29;;;;;;;0.50;0.50;;;;;;;8.78;89.43;97462.34;29395;234;63004;-60
2023/01/06 01:03:00;;;;;;;0.50;0.50;;;;;;;8.77;89.20;97457.19;29395;196;63008;-62
2023/01/06 01:03:33;;;;;;;0.50;0.50;;;;;;;8.76;89.22;97466.38;29395;217;63005;-61
2023/01/06 01:04:06;;;;;;;0.50;0.50;;;;;;;8.76;89.49;97463.69;29395;259;63009;-63
2023/01/06 01:04:40;;;;;;;0.50;0.50;;;;;;;8.78;89.26;97475.06;29395;277;63005;-61
2023/01/06 01:05:12;;;;;;;0.50;0.50;;;;;;;8.80;89.23;97459.38;29394;260;64009;-62
2023/01/06 01:05:43;;;;;;;0.50;0.50;;;;;;;8.80;89.24;97470.19;29395;222;63009;-62
2023/01/06 01:06:15;;;;;;;0.50;0.50;;;;;;;8.80;89.24;97464.78;29394;215;64009;-61
2023/01/06 01:06:48;;;;;;;0.50;0.50;;;;;;;8.79;89.33;97471.25;29395;215;63000;-63
2023/01/06 01:07:28;;;;;;;0.50;0.50;;;;;;;8.77;89.24;97466.12;29395;249;63009;-62
2023/01/06 01:07:59;;;;;;;0.50;0.50;;;;;;;8.86;88.99;97463.72;29395;279;63004;-64
2023/01/06 01:08:34;;;;;;;0.50;0.50;;;;;;;8.88;88.55;97466.97;29395;234;63009;-65
2023/01/06 01:09:06;;;;;;;0.50;0.50;;;;;;;8.86;88.71;97463.72;29395;198;63004;-62
2023/01/06 01:09:47;;;;;;;0.50;0.50;;;;;;;8.85;88.71;97462.09;29395;202;63009;-66
2023/01/06 01:10:19;;;;;;;0.50;0.50;;;;;;;8.87;88.65;97460.75;29394;272;64004;-62
2023/01/06 01:10:51;;;;;;;0.50;0.50;;;;;;;8.87;88.64;97466.16;29395;233;63004;-61
2023/01/06 01:12:13;;;;;;;0.50;0.50;;;;;;;8.84;88.63;97460.47;29439;204;63009;-64
2023/01/06 01:13:51;;;;;;;0.54;0.54;;;;;;;8.84;88.50;97460.47;88177;202;64004;-91
2023/01/06 01:14:25;;;;;;;0.50;0.50;;;;;;;8.84;88.79;97461.28;29394;222;64009;-90
2023/01/06 01:14:57;;;;;;;0.50;0.50;;;;;;;8.82;88.77;97459.91;29395;237;63005;-93
2023/01/06 01:15:32;;;;;;;0.50;0.50;;;;;;;8.80;88.78;97453.94;29394;231;64013;-91
2023/01/06 01:16:08;;;;;;;0.50;0.50;;;;;;;8.79;88.79;97452.31;29395;196;63005;-92
2023/01/06 01:16:42;;;;;;;0.50;0.50;;;;;;;8.77;88.70;97454.47;29395;235;63009;-91
2023/01/06 01:17:20;;;;;;;0.50;0.50;;;;;;;8.76;88.79;97458.28;29394;226;64009;-91
2023/01/06 01:17:53;;;;;;;0.50;0.50;;;;;;;8.76;88.86;97458.28;29395;250;63016;-92
2023/01/06 01:18:25;;;;;;;0.50;0.50;;;;;;;8.76;89.21;97452.84;29395;228;63004;-91
2023/01/06 01:18:56;;;;;;;0.50;0.50;;;;;;;8.78;88.96;97456.13;29395;259;63015;-91
2023/01/06 01:19:36;;;;;;;0.50;0.50;;;;;;;8.77;88.92;97454.47;29395;264;63004;-91
2023/01/06 01:20:26;;;;;;;0.50;0.50;;;;;;;8.82;88.59;97449.09;29395;221;63008;-89
2023/01/06 01:20:57;;;;;;;0.50;0.50;;;;;;;8.86;88.49;97452.88;29395;207;63005;-90
2023/01/06 01:21:29;;;;;;;0.50;0.50;;;;;;;8.87;88.55;97454.50;29395;230;63009;-91
2023/01/06 01:22:11;;;;;;;0.50;0.50;;;;;;;8.85;88.35;97452.06;29394;280;64009;-92
2023/01/06 01:22:45;;;;;;;0.50;0.50;;;;;;;8.85;88.22;97451.25;29377;239;125009;-91
2023/01/06 01:23:16;;;;;;;0.50;0.50;;;;;;;8.84;88.43;97455.03;29373;220;63008;-94
2023/01/06 01:23:51;;;;;;;0.50;0.50;;;;;;;8.82;88.30;97457.19;29395;202;63009;-91
2023/01/06 01:24:25;;;;;;;0.50;0.50;;;;;;;8.80;88.42;97456.66;29395;232;63004;-91
2023/01/06 01:24:58;;;;;;;0.50;0.50;;;;;;;8.80;88.81;97453.94;29395;214;63009;-91
2023/01/06 01:25:29;;;;;;;0.50;0.50;;;;;;;8.81;88.90;97455.56;29395;218;63004;-93
2023/01/06 01:26:01;;;;;;;0.50;0.50;;;;;;;8.83;88.56;97454.22;29394;208;64013;-92
2023/01/06 01:26:34;;;;;;;0.50;0.50;;;;;;;8.82;88.44;97457.19;29395;199;63004;-92
2023/01/06 01:27:12;;;;;;;0.50;0.50;;;;;;;8.81;88.80;97455.56;29395;240;63008;-89
2023/01/06 01:27:45;;;;;;;0.50;0.50;;;;;;;8.80;88.66;97459.38;29394;211;64009;-92
2023/01/06 01:29:28;;;;;;;0.50;0.50;;;;;;;8.76;89.15;97458.28;88178;214;64004;-91
2023/01/06 01:29:59;;;;;;;0.50;0.50;;;;;;;8.77;89.20;97463.41;29394;226;64009;-92
2023/01/06 01:30:31;;;;;;;0.50;0.50;;;;;;;8.77;89.10;97459.91;29395;198;63005;-92
2023/01/06 01:31:05;;;;;;;0.50;0.50;;;;;;;8.74;88.94;97458.53;29395;223;63009;-91
2023/01/06 01:31:36;;;;;;;0.50;0.50;;;;;;;8.72;89.28;97458.00;29395;204;63004;-92
2023/01/06 01:32:10;;;;;;;0.50;0.50;;;;;;;8.69;89.18;97459.31;29395;229;63009;-92
2023/01/06 01:32:48;;;;;;;0.50;0.50;;;;;;;8.66;89.70;97459.88;29394;264;64009;-90
2023/01/06 01:33:21;;;;;;;0.50;0.50;;;;;;;8.64;89.81;97455.81;29395;231;63009;-90
2023/01/06 01:33:55;;;;;;;0.50;0.50;;;;;;;8.62;90.05;97453.38;29395;211;63004;-90
2023/01/06 01:34:29;;;;;;;0.50;0.50;;;;;;;8.61;90.03;97456.34;29395;206;63008;-91
2023/01/06 01:35:00;;;;;;;0.50;0.50;;;;;;;8.62;89.95;97453.38;29394;221;64005;-90
2023/01/06 01:35:36;;;;;;;0.50;0.50;;;;;;;8.61;89.84;97446.34;29395;208;63013;-89
2023/01/06 01:36:15;;;;;;;0.50;0.50;;;;;;;8.61;89.99;97449.06;29395;204;63005;-91
2023/01/06 01:36:50;;;;;;;5.45;5.25;;;;;;;8.62;89.90;97452.56;29395;228;63009;-92
2023/01/06 01:37:24;;;;;;;0.50;0.50;;;;;;;8.62;89.92;97458.78;29395;255;63005;-92
2023/01/06 01:37:55;;;;;;;0.50;0.50;;;;;;;8.61;89.94;97456.34;29394;202;64013;-91
2023/01/06 01:38:29;;;;;;;0.50;0.50;;;;;;;8.60;90.13;97450.13;29394;269;64021;-90
2023/01/06 01:39:00;;;;;;;0.60;0.60;;;;;;;8.60;90.20;97450.13;29395;208;63009;-91
2023/01/06 01:39:36;;;;;;;0.50;0.50;;;;;;;8.59;90.02;97448.50;29395;239;63004;-91
2023/01/06 01:40:11;;;;;;;0.50;0.50;;;;;;;8.60;89.89;97446.63;29395;279;63009;-91
2023/01/06 01:40:51;;;;;;;0.50;0.50;;;;;;;8.59;90.05;97445.81;29395;242;63004;-91
2023/01/06 01:41:26;;;;;;;0.50;0.50;;;;;;;8.58;90.05;97446.88;29395;264;63008;-90
2023/01/06 01:42:05;;;;;;;0.50;0.50;;;;;;;8.58;90.42;97441.47;29394;203;64008;-92
2023/01/06 01:42:36;;;;;;;0.50;0.50;;;;;;;8.60;90.13;97436.59;29395;252;63009;-91
2023/01/06 01:43:15;;;;;;;0.50;0.50;;;;;;;8.61;90.03;97440.94;29395;248;63007;-90
2023/01/06 01:45:06;;;;;;;0.49;0.49;;;;;;;8.61;90.06;97443.62;88182;79;64005;-91
2023/01/06 01:45:48;;;;;;;0.50;0.50;;;;;;;8.61;89.96;97438.22;29394;224;64008;-91
2023/01/06 01:46:32;;;;;;;0.50;0.50;;;;;;;8.65;89.99;97441.22;29395;209;63004;-90
2023/01/06 01:47:14;;;;;;;0.50;0.50;;;;;;;8.72;89.29;97436.34;29394;215;64014;-91
2023/01/06 01:48:23;;;;;;;0.50;0.50;;;;;;;8.71;89.27;97440.94;29395;207;63005;-90
2023/01/06 01:49:06;;;;;;;0.50;0.50;;;;;;;8.70;89.72;97439.31;29394;209;64013;-89
2023/01/06 01:49:45;;;;;;;0.50;0.50;;;;;;;8.68;89.81;97436.06;29395;244;63005;-89
2023/01/06 01:50:38;;;;;;;0.50;0.50;;;;;;;8.65;89.86;97444.75;29395;218;63009;-88
2023/01/06 01:51:29;;;;;;;0.50;0.50;;;;;;;8.65;90.70;97442.03;29395;200;63004;-90
2023/01/06 01:52:03;;;;;;;0.50;0.50;;;;;;;8.65;90.80;97442.03;29395;206;63009;-89
2023/01/06 01:52:43;;;;;;;0.50;0.50;;;;;;;8.64;90.58;97443.13;29395;235;63004;-90
2023/01/06 01:53:32;;;;;;;0.50;0.50;;;;;;;8.63;91.06;97441.47;29394;298;64013;-91
2023/01/06 01:54:14;;;;;;;0.50;0.50;;;;;;;8.67;90.66;97445.25;29395;226;63005;-90
2023/01/06 01:54:57;;;;;;;0.50;0.50;;;;;;;8.72;90.34;97445.28;29395;216;63009;-91
2023/01/06 01:55:32;;;;;;;0.60;0.60;;;;;;;8.72;90.42;97441.75;29395;197;63005;-90
2023/01/06 01:56:09;;;;;;;0.50;0.50;;;;;;;8.72;90.41;97444.47;29395;235;63009;-92
2023/01/06 01:56:51;;;;;;;0.50;0.50;;;;;;;8.73;90.07;97444.19;29395;256;63005;-91
2023/01/06 01:57:38;;;;;;;0.50;0.50;;;;;;;8.78;89.74;97443.41;29395;203;63009;-91
2023/01/06 01:58:19;;;;;;;0.50;0.50;;;;;;;8.85;89.33;97440.44;29394;212;64009;-88
2023/01/06 01:59:17;;;;;;;0.50;0.50;;;;;;;8.88;88.65;97439.91;29395;204;63009;-90
2023/01/06 01:59:55;;;;;;;0.50;0.50;;;;;;;8.84;88.70;97436.09;29395;257;63004;-91
2023/01/06 02:00:30;;;;;;;0.50;0.50;;;;;;;8.83;89.18;97437.19;29395;202;63008;-92
2023/01/06 02:01:08;;;;;;;0.50;0.50;;;;;;;8.87;88.99;97428.25;29395;206;63005;-89
2023/01/06 02:01:43;;;;;;;0.50;0.50;;;;;;;8.90;88.44;97433.16;29395;215;63009;-91
2023/01/06 02:02:20;;;;;;;0.50;0.50;;;;;;;8.90;88.70;97432.31;29395;238;63005;-90
2023/01/06 02:02:55;;;;;;;0.50;0.50;;;;;;;8.88;88.84;97435.31;29394;261;64013;-91
2023/01/06 02:03:28;;;;;;;0.50;0.50;;;;;;;8.90;88.54;97433.16;29395;258;63005;-89
2023/01/06 02:04:03;;;;;;;0.50;0.50;;;;;;;8.90;88.51;97435.03;29395;242;63009;-90
2023/01/06 02:04:40;;;;;;;0.50;0.50;;;;;;;8.88;88.62;97440.72;29395;218;63005;-89
2023/01/06 02:05:19;;;;;;;0.50;0.50;;;;;;;8.93;88.43;97438.03;29395;278;63009;-89
2023/01/06 02:05:58;;;;;;;0.50;0.50;;;;;;;8.94;88.29;97438.84;29395;245;63004;-92
2023/01/06 02:06:32;;;;;;;0.50;0.50;;;;;;;8.91;88.28;97439.37;29395;231;63004;-92
2023/01/06 02:07:06;;;;;;;0.50;0.50;;;;;;;8.88;88.79;97434.50;29395;223;63004;-91
2023/01/06 02:07:40;;;;;;;0.50;0.50;;;;;;;8.85;88.88;97429.62;29394;197;64013;-89
2023/01/06 02:08:32;;;;;;;0.50;0.50;;;;;;;8.82;88.96;97435.56;29395;209;63004;-91
2023/01/06 02:09:22;;;;;;;0.50;0.50;;;;;;;8.81;89.14;97431.22;29394;245;64014;-89
2023/01/06 02:10:16;;;;;;;0.50;0.50;;;;;;;8.80;88.97;97438.53;29395;202;63005;-92
2023/01/06 02:10:50;;;;;;;0.50;0.50;;;;;;;8.80;88.94;97437.72;29395;210;63009;-90
2023/01/06 02:11:25;;;;;;;0.50;0.50;;;;;;;8.81;89.09;97436.62;29395;235;63005;-91
2023/01/06 02:11:59;;;;;;;0.50;0.50;;;;;;;8.81;88.99;97439.34;29394;202;64013;-91
2023/01/06 02:12:33;;;;;;;0.50;0.50;;;;;;;8.81;88.74;97444.75;29395;253;63005;-90
2023/01/06 02:13:07;;;;;;;1.17;1.17;;;;;;;8.90;88.66;97437.75;29395;202;63009;-90
2023/01/06 02:13:46;;;;;;;0.50;0.50;;;;;;;8.93;88.36;97439.91;29395;199;63004;-90
2023/01/06 02:14:23;;;;;;;0.50;0.50;;;;;;;8.93;87.96;97439.91;29395;293;63009;-92
2023/01/06 02:14:54;;;;;;;0.50;0.50;;;;;;;8.91;88.32;97440.19;29395;199;63004;-90
2023/01/06 02:15:31;;;;;;;0.50;0.50;;;;;;;8.90;88.06;97432.31;29395;277;63008;-90
2023/01/06 02:16:46;;;;;;;0.50;0.50;;;;;;;8.91;88.18;97440.19;29394;258;64008;-90
2023/01/06 02:18:02;;;;;;;0.50;0.50;;;;;;;8.88;88.43;97432.59;29395;218;63009;-90
2023/01/06 02:19:01;;;;;;;0.50;0.50;;;;;;;8.90;88.35;97427.72;29395;225;63005;-91
2023/01/06 02:20:17;;;;;;;0.50;0.50;;;;;;;8.94;87.95;97428.00;29395;279;63009;-89
2023/01/06 02:21:34;;;;;;;0.50;0.50;;;;;;;8.97;87.84;97424.75;29395;210;63004;-88
2023/01/06 02:23:05;;;;;;;0.50;0.50;;;;;;;8.97;87.67;97431.00;29394;241;64013;-91
2023/01/06 02:24:19;;;;;;;0.50;0.50;;;;;;;8.93;87.87;97438.03;29395;196;63004;-92
2023/01/06 02:25:30;;;;;;;0.50;0.50;;;;;;;8.90;87.97;97433.16;29416;224;64014;-92
2023/01/06 02:27:00;;;;;;;0.50;0.50;;;;;;;8.84;88.17;97428.00;29395;243;63009;-92
2023/01/06 02:28:28;;;;;;;0.50;0.50;;;;;;;8.82;88.17;97432.84;29395;241;63009;-89
2023/01/06 02:29:49;;;;;;;0.50;0.50;;;;;;;8.80;88.43;97426.91;29394;214;64009;-91
2023/01/06 02:31:11;;;;;;;0.50;0.50;;;;;;;8.78;88.83;97423.63;29395;221;63004;-89
2023/01/06 02:33:02;;;;;;;0.50;0.50;;;;;;;8.72;88.97;97420.91;29395;225;63009;-89
2023/01/06 02:33:59;;;;;;;0.50;0.50;;;;;;;8.71;89.25;97423.91;29394;196;64009;-90
2023/01/06 02:34:56;;;;;;;0.50;0.50;;;;;;;8.69;89.16;97421.47;29395;211;63009;-92
2023/01/06 02:36:18;;;;;;;0.50;0.50;;;;;;;8.69;89.17;97416.03;29395;251;63009;-90
2023/01/06 02:39:32;;;;;;;0.50;0.50;;;;;;;8.72;89.50;97418.22;29395;251;63009;-90
2023/01/06 02:41:05;;;;;;;0.50;0.50;;;;;;;8.72;89.22;97418.22;29394;202;64009;-90
2023/01/06 02:42:45;;;;;;;0.50;0.50;;;;;;;8.72;88.68;97414.69;29394;228;64013;-89
2023/01/06 02:44:36;;;;;;;0.50;0.50;;;;;;;8.71;89.18;97424.72;29395;215;63004;-90
2023/01/06 02:46:05;;;;;;;0.50;0.50;;;;;;;8.70;89.21;97412.25;29394;234;64013;-90
2023/01/06 02:47:35;;;;;;;0.50;0.50;;;;;;;8.71;89.12;97411.19;29395;213;63005;-91
2023/01/06 02:48:49;;;;;;;0.50;0.50;;;;;;;8.68;89.04;97408.19;29395;271;63009;-91
2023/01/06 02:50:34;;;;;;;0.50;0.50;;;;;;;8.70;89.39;97417.66;29395;210;63005;-89
2023/01/06 02:51:50;;;;;;;0.50;0.50;;;;;;;8.68;89.19;97422.53;29394;213;64013;-91
2023/01/06 02:53:24;;;;;;;0.50;0.50;;;;;;;8.68;89.17;97417.13;29395;216;63004;-89
2023/01/06 02:54:42;;;;;;;0.50;0.50;;;;;;;8.66;89.37;97419.28;29395;199;63009;-90
2023/01/06 02:55:59;;;;;;;0.60;0.60;;;;;;;8.68;89.37;97422.53;29394;264;64009;-91
2023/01/06 02:57:14;;;;;;;0.50;0.50;;;;;;;8.71;89.20;97415.78;29395;232;63009;-90
2023/01/06 03:37:31;;;;;;;0.60;0.60;;;;;;;8.52;90.09;97388.44;29395;206;63004;-90
2023/01/06 03:39:24;;;;;;;0.57;0.57;;;;;;;8.50;90.50;97384.38;88180;322;64004;-90
2023/01/06 03:41:03;;;;;;;0.50;0.50;;;;;;;8.49;90.60;97388.97;29394;197;64009;-91
2023/01/06 03:43:52;;;;;;;0.50;0.50;;;;;;;8.44;90.71;97390.84;29395;204;63008;-92
2023/01/06 03:44:46;;;;;;;0.55;0.55;;;;;;;8.41;91.06;97392.19;29394;306;64014;-92
2023/01/06 03:45:51;;;;;;;0.55;0.55;;;;;;;8.40;91.29;97398.66;29394;206;64009;-92
2023/01/06 03:46:49;;;;;;;0.55;0.55;;;;;;;8.39;91.31;97397.03;29395;198;63009;-92
2023/01/06 03:48:10;;;;;;;0.52;0.52;;;;;;;8.38;91.42;97392.72;29395;253;63005;-91
2023/01/06 03:49:27;;;;;;;0.50;0.50;;;;;;;8.35;92.01;97399.47;29394;222;64009;-88
2023/01/06 03:50:48;;;;;;;0.50;0.50;;;;;;;8.37;92.13;97401.91;29395;211;63009;-90
2023/01/06 03:51:59;;;;;;;0.60;0.60;;;;;;;8.37;92.00;97407.31;29395;308;63001;-90
2023/01/06 03:52:43;;;;;;;0.50;0.50;;;;;;;8.37;91.90;97404.59;29395;200;63009;-89
2023/01/06 03:55:09;;;;;;;0.56;0.56;;;;;;;8.33;91.88;97400.81;88180;218;64004;-90
2023/01/06 03:56:01;;;;;;;0.50;0.50;;;;;;;8.31;91.96;97392.97;29394;210;64009;-89
2023/01/06 03:57:15;;;;;;;0.50;0.50;;;;;;;8.32;91.87;97400.00;29417;246;63010;-91
2023/01/06 03:57:57;;;;;;;0.50;0.50;;;;;;;8.32;92.06;97391.88;29395;216;63009;-89
2023/01/06 03:59:10;;;;;;;0.55;0.55;;;;;;;8.31;91.72;97397.56;29417;261;63004;-93
2023/01/06 04:00:04;;;;;;;0.50;0.50;;;;;;;8.29;91.71;97403.22;29394;213;64013;-91
2023/01/06 04:01:02;;;;;;;0.50;0.50;;;;;;;8.27;92.01;97404.56;29395;228;63004;-90
2023/01/06 04:01:42;;;;;;;0.50;0.50;;;;;;;8.27;92.07;97399.16;29395;245;63009;-91
2023/01/06 04:02:50;;;;;;;0.50;0.50;;;;;;;8.27;92.11;97396.47;29395;320;63005;-90
2023/01/06 04:03:50;;;;;;;0.50;0.50;;;;;;;8.26;92.24;97398.34;29377;217;125009;-90
2023/01/06 04:05:12;;;;;;;0.50;0.50;;;;;;;8.28;92.03;97398.09;29394;197;64009;-91
2023/01/06 04:06:23;;;;;;;0.50;0.50;;;;;;;8.29;91.89;97399.72;29395;202;63009;-90
2023/01/06 04:07:01;;;;;;;0.50;0.50;;;;;;;8.27;91.51;97404.56;29395;196;63004;-89
2023/01/06 04:07:58;;;;;;;0.60;0.60;;;;;;;8.26;91.99;97406.47;29395;196;63009;-90
2023/01/06 04:08:29;;;;;;;0.50;0.50;;;;;;;8.24;92.08;97403.22;29394;275;64008;-89
2023/01/06 04:09:03;;;;;;;0.50;0.50;;;;;;;8.25;92.19;97404.03;29395;242;63009;-91
2023/01/06 04:09:42;;;;;;;0.50;0.50;;;;;;;8.24;92.44;97410.50;29395;242;63005;-87
2023/01/06 04:10:17;;;;;;;0.50;0.50;;;;;;;8.23;92.45;97404.28;29395;210;63005;-90
2023/01/06 04:10:52;;;;;;;0.50;0.50;;;;;;;8.22;92.36;97410.75;29395;198;63005;-91
2023/01/06 04:13:09;;;;;;;0.50;0.50;;;;;;;8.20;92.38;97399.41;29395;225;63009;-91
2023/01/06 04:13:42;;;;;;;0.50;0.50;;;;;;;8.21;92.68;97400.22;29394;218;64009;-92
2023/01/06 04:14:13;;;;;;;0.50;0.50;;;;;;;8.21;92.28;97392.09;29395;205;63009;-90
2023/01/06 04:14:48;;;;;;;0.50;0.50;;;;;;;8.22;92.28;97404.53;29395;222;63004;-91